createdAt,value
2019-06-27T00:00:54.104Z,98.58
2019-06-27T00:01:54.061Z,98.63
2019-06-27T00:02:54.022Z,98.54
2019-06-27T00:03:54.011Z,98.44
2019-06-27T00:04:53.937Z,97.38
2019-06-27T00:05:53.928Z,98.05
2019-06-27T00:06:53.902Z,98.73
2019-06-27T00:07:53.813Z,98.44
2019-06-27T00:08:53.774Z,99.11
2019-06-27T00:09:53.730Z,98.54
2019-06-27T00:10:53.688Z,98.35
2019-06-27T00:11:53.678Z,98.15
2019-06-27T00:12:53.607Z,97.47
2019-06-27T00:13:53.566Z,97.57
2019-06-27T00:14:53.526Z,96.60
2019-06-27T00:15:53.489Z,96.36
2019-06-27T00:16:53.470Z,95.83
2019-06-27T00:17:53.399Z,96.41
2019-06-27T00:18:53.360Z,97.18
2019-06-27T00:19:53.313Z,97.47
2019-06-27T00:20:53.329Z,96.12
2019-06-27T00:21:53.235Z,95.83
2019-06-27T00:22:53.192Z,97.18
2019-06-27T00:23:53.149Z,97.38
2019-06-27T00:24:53.109Z,97.09
2019-06-27T00:25:53.107Z,96.22
2019-06-27T00:26:57.462Z,96.70
2019-06-27T00:27:52.983Z,97.28
2019-06-27T00:28:52.941Z,97.38
2019-06-27T00:29:52.903Z,94.96
2019-06-27T00:30:52.888Z,96.02
2019-06-27T00:31:52.815Z,96.56
2019-06-27T00:32:52.775Z,96.65
2019-06-27T00:33:52.737Z,95.98
2019-06-27T00:34:52.693Z,96.17
2019-06-27T00:35:52.685Z,97.14
2019-06-27T00:36:52.611Z,96.36
2019-06-27T00:37:52.566Z,95.88
2019-06-27T00:38:52.526Z,95.59
2019-06-27T00:39:52.481Z,95.68
2019-06-27T00:40:52.479Z,96.75
2019-06-27T00:41:52.403Z,96.26
2019-06-27T00:42:52.370Z,95.98
2019-06-27T00:43:52.387Z,95.40
2019-06-27T00:44:52.273Z,95.98
2019-06-27T00:45:52.263Z,96.07
2019-06-27T00:46:52.192Z,95.78
2019-06-27T00:47:52.148Z,94.53
2019-06-27T00:48:52.109Z,95.01
2019-06-27T00:49:52.066Z,93.51
2019-06-27T00:50:52.069Z,92.83
2019-06-27T00:51:51.980Z,93.61
2019-06-27T00:52:51.945Z,94.29
2019-06-27T00:53:51.898Z,93.71
2019-06-27T00:54:51.861Z,94.57
2019-06-27T00:55:51.843Z,95.73
2019-06-27T00:56:51.772Z,94.48
2019-06-27T00:57:51.730Z,93.61
2019-06-27T00:58:51.690Z,93.23
2019-06-27T00:59:51.647Z,93.71
2019-06-27T01:00:51.654Z,93.71
2019-06-27T01:01:51.562Z,93.71
2019-06-27T01:02:51.519Z,93.03
2019-06-27T01:03:51.482Z,92.65
2019-06-27T01:04:51.436Z,92.35
2019-06-27T01:05:51.429Z,93.03
2019-06-27T01:06:51.376Z,93.32
2019-06-27T01:07:51.312Z,92.41
2019-06-27T01:08:51.269Z,93.23
2019-06-27T01:09:51.225Z,93.61
2019-06-27T01:10:51.183Z,92.07
2019-06-27T01:11:51.172Z,91.77
2019-06-27T01:12:51.098Z,91.83
2019-06-27T01:13:51.057Z,92.41
2019-06-27T01:14:51.015Z,92.98
2019-06-27T01:15:50.977Z,89.99
2019-06-27T01:16:50.981Z,92.50
2019-06-27T01:17:50.887Z,90.28
2019-06-27T01:18:50.846Z,90.19
2019-06-27T01:19:50.804Z,91.63
2019-06-27T01:20:50.762Z,92.41
2019-06-27T01:21:50.756Z,90.37
2019-06-27T01:22:50.677Z,90.95
2019-06-27T01:23:50.667Z,89.89
2019-06-27T01:24:50.593Z,90.67
2019-06-27T01:25:50.552Z,91.05
2019-06-27T01:26:50.540Z,91.63
2019-06-27T01:27:50.463Z,91.25
2019-06-27T01:28:50.422Z,90.57
2019-06-27T01:29:50.391Z,90.28
2019-06-27T01:30:50.340Z,89.79
2019-06-27T01:31:50.327Z,90.19
2019-06-27T01:32:50.256Z,92.41
2019-06-27T01:33:50.210Z,90.77
2019-06-27T01:34:50.181Z,90.57
2019-06-27T01:35:50.167Z,90.33
2019-06-27T01:36:50.084Z,89.95
2019-06-27T01:37:50.230Z,91.01
2019-06-27T01:38:50.002Z,91.20
2019-06-27T01:39:49.957Z,90.33
2019-06-27T01:40:49.946Z,89.95
2019-06-27T01:41:49.870Z,89.56
2019-06-27T01:42:49.828Z,88.50
2019-06-27T01:43:52.426Z,89.95
2019-06-27T01:44:49.745Z,90.72
2019-06-27T01:45:49.724Z,88.79
2019-06-27T01:46:49.658Z,88.89
2019-06-27T01:47:49.616Z,88.98
2019-06-27T01:48:49.579Z,89.85
2019-06-27T01:49:49.529Z,88.89
2019-06-27T01:50:49.527Z,88.98
2019-06-27T01:51:49.449Z,88.21
2019-06-27T01:52:49.447Z,88.02
2019-06-27T01:53:49.361Z,88.02
2019-06-27T01:54:49.319Z,88.31
2019-06-27T01:55:49.274Z,88.89
2019-06-27T01:56:49.232Z,90.05
2019-06-27T01:57:49.219Z,90.33
2019-06-27T01:58:49.148Z,88.69
2019-06-27T01:59:49.101Z,88.65
2019-06-27T02:00:49.094Z,90.33
2019-06-27T02:01:49.062Z,89.03
2019-06-27T02:02:48.979Z,88.55
2019-06-27T02:03:48.936Z,88.89
2019-06-27T02:04:48.927Z,88.31
2019-06-27T02:05:48.850Z,89.51
2019-06-27T02:06:48.808Z,88.84
2019-06-27T02:07:48.761Z,89.71
2019-06-27T02:08:48.716Z,88.93
2019-06-27T02:09:48.709Z,88.65
2019-06-27T02:10:48.633Z,89.03
2019-06-27T02:11:48.599Z,90.00
2019-06-27T02:12:48.546Z,90.48
2019-06-27T02:13:48.503Z,89.90
2019-06-27T02:14:48.492Z,89.42
2019-06-27T02:15:48.416Z,90.00
2019-06-27T02:16:48.373Z,89.71
2019-06-27T02:17:48.337Z,88.36
2019-06-27T02:18:48.287Z,87.97
2019-06-27T02:19:48.277Z,89.61
2019-06-27T02:20:48.202Z,89.47
2019-06-27T02:21:48.159Z,88.36
2019-06-27T02:22:48.118Z,88.79
2019-06-27T02:23:48.081Z,89.47
2019-06-27T02:24:48.053Z,89.76
2019-06-27T02:25:47.987Z,89.47
2019-06-27T02:26:47.945Z,90.15
2019-06-27T02:28:02.629Z,89.18
2019-06-27T02:28:47.858Z,89.86
2019-06-27T02:29:47.815Z,89.86
2019-06-27T02:30:47.771Z,89.95
2019-06-27T02:31:47.729Z,90.24
2019-06-27T02:32:47.721Z,90.63
2019-06-27T02:33:47.644Z,90.05
2019-06-27T02:34:47.601Z,90.82
2019-06-27T02:35:47.670Z,91.60
2019-06-27T02:36:47.512Z,90.63
2019-06-27T02:37:47.475Z,91.74
2019-06-27T02:38:47.428Z,90.88
2019-06-27T02:39:47.385Z,91.55
2019-06-27T02:40:47.369Z,91.45
2019-06-27T02:41:47.298Z,91.26
2019-06-27T02:42:47.251Z,91.36
2019-06-27T02:43:47.242Z,92.41
2019-06-27T02:44:47.166Z,92.13
2019-06-27T02:45:47.186Z,91.06
2019-06-27T02:46:47.078Z,92.71
2019-06-27T02:47:47.035Z,93.28
2019-06-27T02:48:46.992Z,92.99
2019-06-27T02:49:49.917Z,92.71
2019-06-27T02:50:46.930Z,93.19
2019-06-27T02:51:46.894Z,94.44
2019-06-27T02:52:46.819Z,93.19
2019-06-27T02:53:46.774Z,93.38
2019-06-27T02:54:46.732Z,92.18
2019-06-27T02:55:46.686Z,94.24
2019-06-27T02:56:46.668Z,95.26
2019-06-27T02:57:46.602Z,93.62
2019-06-27T02:58:46.579Z,95.26
2019-06-27T02:59:46.517Z,94.68
2019-06-27T03:00:46.470Z,95.07
2019-06-27T03:01:46.431Z,93.91
2019-06-27T03:02:46.383Z,93.43
2019-06-27T03:03:46.368Z,94.87
2019-06-27T03:04:46.299Z,95.45
2019-06-27T03:05:46.250Z,95.07
2019-06-27T03:06:46.209Z,94.59
2019-06-27T03:07:46.162Z,95.74
2019-06-27T03:08:46.151Z,95.74
2019-06-27T03:09:46.076Z,95.94
2019-06-27T03:10:46.033Z,96.03
2019-06-27T03:11:45.987Z,96.42
2019-06-27T03:12:45.989Z,96.99
2019-06-27T03:13:45.903Z,96.75
2019-06-27T03:14:45.855Z,96.89
2019-06-27T03:15:45.811Z,96.80
2019-06-27T03:16:45.779Z,97.86
2019-06-27T03:17:45.770Z,97.81
2019-06-27T03:18:45.678Z,97.47
2019-06-27T03:19:45.638Z,98.29
2019-06-27T03:20:45.595Z,98.97
2019-06-27T03:21:45.548Z,98.68
2019-06-27T03:22:45.555Z,98.87
2019-06-27T03:23:45.459Z,99.06
2019-06-27T03:24:45.416Z,99.35
2019-06-27T03:25:45.373Z,99.35
2019-06-27T03:26:45.328Z,98.77
2019-06-27T03:27:45.339Z,99.26
2019-06-27T03:28:52.655Z,99.54
2019-06-27T03:29:45.198Z,99.54
2019-06-27T03:30:45.153Z,99.44
2019-06-27T03:31:45.112Z,99.06
2019-06-27T03:32:45.107Z,98.97
2019-06-27T03:33:45.031Z,98.97
2019-06-27T03:34:44.977Z,99.26
2019-06-27T03:35:44.931Z,99.26
2019-06-27T03:36:44.889Z,99.44
2019-06-27T03:37:44.885Z,99.35
2019-06-27T03:38:44.802Z,99.26
2019-06-27T03:39:44.760Z,98.97
2019-06-27T03:40:44.711Z,98.77
2019-06-27T03:41:44.702Z,99.74
2019-06-27T03:42:44.667Z,98.97
2019-06-27T03:43:44.584Z,98.39
2019-06-27T03:44:44.534Z,99.06
2019-06-27T03:45:44.493Z,99.16
2019-06-27T03:46:44.446Z,99.16
2019-06-27T03:47:44.434Z,99.44
2019-06-27T03:48:44.360Z,99.64
2019-06-27T03:49:44.318Z,99.16
2019-06-27T03:50:44.286Z,99.64
2019-06-27T03:51:44.255Z,99.44
2019-06-27T03:52:44.183Z,99.26
2019-06-27T03:53:44.136Z,98.97
2019-06-27T03:54:44.101Z,99.44
2019-06-27T03:55:44.145Z,99.99
2019-06-27T03:56:44.037Z,99.74
2019-06-27T03:57:45.323Z,99.99
2019-06-27T03:58:43.915Z,99.35
2019-06-27T03:59:43.869Z,99.99
2019-06-27T04:00:43.831Z,99.93
2019-06-27T04:01:43.821Z,99.93
2019-06-27T04:02:43.738Z,99.54
2019-06-27T04:03:43.759Z,99.93
2019-06-27T04:04:43.650Z,99.99
2019-06-27T04:05:43.606Z,99.54
2019-06-27T04:06:43.598Z,99.64
2019-06-27T04:07:43.525Z,99.99
2019-06-27T04:08:43.478Z,99.99
2019-06-27T04:09:43.428Z,99.99
2019-06-27T04:10:43.388Z,99.99
2019-06-27T04:11:43.380Z,99.99
2019-06-27T04:12:43.365Z,99.99
2019-06-27T04:13:43.253Z,99.99
2019-06-27T04:14:43.208Z,99.99
2019-06-27T04:15:43.162Z,99.99
2019-06-27T04:16:43.148Z,99.99
2019-06-27T04:17:43.074Z,99.99
2019-06-27T04:18:43.029Z,99.99
2019-06-27T04:19:42.982Z,99.99
2019-06-27T04:20:42.981Z,99.99
2019-06-27T04:21:42.898Z,99.99
2019-06-27T04:22:42.886Z,99.99
2019-06-27T04:23:42.811Z,99.99
2019-06-27T04:24:42.793Z,99.99
2019-06-27T04:25:42.718Z,99.99
2019-06-27T04:26:42.678Z,99.99
2019-06-27T04:27:42.657Z,99.99
2019-06-27T04:28:42.589Z,99.99
2019-06-27T04:29:42.572Z,99.99
2019-06-27T04:30:42.495Z,99.99
2019-06-27T04:31:42.457Z,99.99
2019-06-27T04:32:42.406Z,99.99
2019-06-27T04:33:42.409Z,99.99
2019-06-27T04:34:42.408Z,99.99
2019-06-27T04:35:42.318Z,99.99
2019-06-27T04:36:42.277Z,99.99
2019-06-27T04:37:42.199Z,99.99
2019-06-27T04:38:42.203Z,99.99
2019-06-27T04:39:42.092Z,99.99
2019-06-27T04:40:42.087Z,99.99
2019-06-27T04:41:42.039Z,99.99
2019-06-27T04:42:41.959Z,99.99
2019-06-27T04:43:41.947Z,99.99
2019-06-27T04:44:41.872Z,99.99
2019-06-27T04:45:41.859Z,99.99
2019-06-27T04:46:41.787Z,99.99
2019-06-27T04:47:41.738Z,99.99
2019-06-27T04:48:41.693Z,99.99
2019-06-27T04:49:41.649Z,99.99
2019-06-27T04:50:41.655Z,99.99
2019-06-27T04:51:41.562Z,99.99
2019-06-27T04:52:41.549Z,99.99
2019-06-27T04:53:41.473Z,99.99
2019-06-27T04:54:41.428Z,99.99
2019-06-27T04:55:41.383Z,99.99
2019-06-27T04:56:41.378Z,99.99
2019-06-27T04:57:41.292Z,99.99
2019-06-27T04:58:41.250Z,99.99
2019-06-27T04:59:52.419Z,99.99
2019-06-27T05:00:41.162Z,99.99
2019-06-27T05:01:41.139Z,99.99
2019-06-27T05:02:41.106Z,99.99
2019-06-27T05:03:41.026Z,99.99
2019-06-27T05:04:40.992Z,99.99
2019-06-27T05:05:40.935Z,99.99
2019-06-27T05:06:40.892Z,99.99
2019-06-27T05:07:40.889Z,99.99
2019-06-27T05:08:40.803Z,99.99
2019-06-27T05:09:40.766Z,99.99
2019-06-27T05:10:40.716Z,99.99
2019-06-27T05:11:40.669Z,99.99
2019-06-27T05:12:40.661Z,99.99
2019-06-27T05:13:40.581Z,99.99
2019-06-27T05:14:40.542Z,99.99
2019-06-27T05:15:40.492Z,99.99
2019-06-27T05:16:40.451Z,99.99
2019-06-27T05:17:40.447Z,99.99
2019-06-27T05:18:40.362Z,99.99
2019-06-27T05:19:40.314Z,99.99
2019-06-27T05:20:40.280Z,99.99
2019-06-27T05:21:40.233Z,99.99
2019-06-27T05:22:40.219Z,99.99
2019-06-27T05:23:40.138Z,99.99
2019-06-27T05:24:40.094Z,99.99
2019-06-27T05:25:40.063Z,99.99
2019-06-27T05:26:40.039Z,99.99
2019-06-27T05:27:39.959Z,99.99
2019-06-27T05:28:39.916Z,99.99
2019-06-27T05:29:39.872Z,99.99
2019-06-27T05:30:39.828Z,99.99
2019-06-27T05:31:39.816Z,99.99
2019-06-27T05:32:39.744Z,99.99
2019-06-27T05:33:39.699Z,99.99
2019-06-27T05:34:39.654Z,99.99
2019-06-27T05:35:39.672Z,99.99
2019-06-27T05:36:39.562Z,99.99
2019-06-27T05:37:39.522Z,99.99
2019-06-27T05:38:39.473Z,99.99
2019-06-27T05:39:39.433Z,99.99
2019-06-27T05:40:39.418Z,99.99
2019-06-27T05:41:39.381Z,99.99
2019-06-27T05:42:39.298Z,99.99
2019-06-27T05:43:39.252Z,99.99
2019-06-27T05:44:39.216Z,99.99
2019-06-27T05:45:39.168Z,99.99
2019-06-27T05:46:39.169Z,99.99
2019-06-27T05:47:39.079Z,99.99
2019-06-27T05:48:39.910Z,99.99
2019-06-27T05:49:38.988Z,99.99
2019-06-27T05:50:38.947Z,99.99
2019-06-27T05:51:38.939Z,99.99
2019-06-27T05:52:38.861Z,99.99
2019-06-27T05:53:38.814Z,99.99
2019-06-27T05:54:38.771Z,99.99
2019-06-27T05:55:38.728Z,99.99
2019-06-27T05:56:38.726Z,99.99
2019-06-27T05:57:38.636Z,99.99
2019-06-27T05:58:38.597Z,99.99
2019-06-27T05:59:38.548Z,99.99
2019-06-27T06:00:38.504Z,99.99
2019-06-27T06:01:38.493Z,99.99
2019-06-27T06:02:38.422Z,99.99
2019-06-27T06:03:38.374Z,99.99
2019-06-27T06:04:38.370Z,99.99
2019-06-27T06:05:38.298Z,99.99
2019-06-27T06:06:38.243Z,99.99
2019-06-27T06:07:38.197Z,99.99
2019-06-27T06:08:38.152Z,99.99
2019-06-27T06:09:38.148Z,99.99
2019-06-27T06:10:38.073Z,99.99
2019-06-27T06:11:38.043Z,99.99
2019-06-27T06:12:38.020Z,99.99
2019-06-27T06:13:37.933Z,99.99
2019-06-27T06:14:37.894Z,99.99
2019-06-27T06:15:37.845Z,99.99
2019-06-27T06:16:37.802Z,99.99
2019-06-27T06:17:37.789Z,99.99
2019-06-27T06:18:37.746Z,99.99
2019-06-27T06:19:37.670Z,99.99
2019-06-27T06:20:37.629Z,99.99
2019-06-27T06:21:37.584Z,99.99
2019-06-27T06:22:37.538Z,99.99
2019-06-27T06:23:37.525Z,99.99
2019-06-27T06:24:37.459Z,99.99
2019-06-27T06:25:37.437Z,99.99
2019-06-27T06:26:37.364Z,99.99
2019-06-27T06:27:37.316Z,99.99
2019-06-27T06:28:37.304Z,99.99
2019-06-27T06:29:37.230Z,99.99
2019-06-27T06:30:44.275Z,99.99
2019-06-27T06:31:37.174Z,99.99
2019-06-27T06:32:37.103Z,99.99
2019-06-27T06:33:37.077Z,99.99
2019-06-27T06:34:37.012Z,99.99
2019-06-27T06:35:36.965Z,99.99
2019-06-27T06:36:36.955Z,99.99
2019-06-27T06:37:36.877Z,99.99
2019-06-27T06:38:36.838Z,99.99
2019-06-27T06:39:36.790Z,99.99
2019-06-27T06:40:36.746Z,99.99
2019-06-27T06:41:36.733Z,99.99
2019-06-27T06:42:36.659Z,99.99
2019-06-27T06:43:36.617Z,99.99
2019-06-27T06:44:36.574Z,99.99
2019-06-27T06:45:36.529Z,99.99
2019-06-27T06:46:36.518Z,99.99
2019-06-27T06:47:36.437Z,99.99
2019-06-27T06:48:36.398Z,99.99
2019-06-27T06:49:36.351Z,99.99
2019-06-27T06:50:36.339Z,99.99
2019-06-27T06:51:36.265Z,99.99
2019-06-27T06:52:36.222Z,99.99
2019-06-27T06:53:36.180Z,99.99
2019-06-27T06:54:36.169Z,99.99
2019-06-27T06:55:36.121Z,99.99
2019-06-27T06:56:36.078Z,99.99
2019-06-27T06:57:36.082Z,99.99
2019-06-27T06:58:35.959Z,99.99
2019-06-27T06:59:35.912Z,99.99
2019-06-27T07:00:35.868Z,99.99
2019-06-27T07:01:35.874Z,99.99
2019-06-27T07:02:35.783Z,99.99
2019-06-27T07:03:35.741Z,99.99
2019-06-27T07:04:35.725Z,99.99
2019-06-27T07:05:35.650Z,99.99
2019-06-27T07:06:35.609Z,99.99
2019-06-27T07:07:35.563Z,99.99
2019-06-27T07:08:35.552Z,99.99
2019-06-27T07:09:35.475Z,99.99
2019-06-27T07:10:35.432Z,99.99
2019-06-27T07:11:35.389Z,99.99
2019-06-27T07:12:35.360Z,99.99
2019-06-27T07:13:35.331Z,99.99
2019-06-27T07:14:35.258Z,99.99
2019-06-27T07:15:35.212Z,99.99
2019-06-27T07:16:35.209Z,99.99
2019-06-27T07:17:35.125Z,99.99
2019-06-27T07:18:35.086Z,99.99
2019-06-27T07:19:35.038Z,99.99
2019-06-27T07:20:34.998Z,99.99
2019-06-27T07:21:34.986Z,99.99
2019-06-27T07:22:34.923Z,99.99
2019-06-27T07:23:34.861Z,99.99
2019-06-27T07:24:34.822Z,99.99
2019-06-27T07:25:34.825Z,99.99
2019-06-27T07:26:34.734Z,99.99
2019-06-27T07:27:34.687Z,99.99
2019-06-27T07:28:34.645Z,99.99
2019-06-27T07:29:34.601Z,99.99
2019-06-27T07:30:34.621Z,99.99
2019-06-27T07:31:34.520Z,99.99
2019-06-27T07:32:34.471Z,99.99
2019-06-27T07:33:34.427Z,99.99
2019-06-27T07:34:34.499Z,99.99
2019-06-27T07:35:34.342Z,99.99
2019-06-27T07:36:34.296Z,99.99
2019-06-27T07:37:34.356Z,99.99
2019-06-27T07:38:34.213Z,99.99
2019-06-27T07:39:34.199Z,99.99
2019-06-27T07:40:34.123Z,99.99
2019-06-27T07:41:34.081Z,99.99
2019-06-27T07:42:34.035Z,99.99
2019-06-27T07:43:33.992Z,99.99
2019-06-27T07:44:33.980Z,99.99
2019-06-27T07:45:33.906Z,99.99
2019-06-27T07:46:33.859Z,99.99
2019-06-27T07:47:33.818Z,99.99
2019-06-27T07:48:33.808Z,99.99
2019-06-27T07:49:33.734Z,99.99
2019-06-27T07:50:33.774Z,99.99
2019-06-27T07:51:33.647Z,99.99
2019-06-27T07:52:33.602Z,99.99
2019-06-27T07:53:33.589Z,99.99
2019-06-27T07:54:33.548Z,99.99
2019-06-27T07:55:33.505Z,99.99
2019-06-27T07:56:33.426Z,99.99
2019-06-27T07:57:33.390Z,99.99
2019-06-27T07:58:33.372Z,99.99
2019-06-27T07:59:33.335Z,99.99
2019-06-27T08:00:33.284Z,99.99
2019-06-27T08:01:35.594Z,99.99
2019-06-27T08:02:33.172Z,99.99
2019-06-27T08:03:33.123Z,99.99
2019-06-27T08:04:33.081Z,99.99
2019-06-27T08:05:33.062Z,99.99
2019-06-27T08:06:32.994Z,99.99
2019-06-27T08:07:32.997Z,99.99
2019-06-27T08:08:32.909Z,99.99
2019-06-27T08:09:32.868Z,99.99
2019-06-27T08:10:32.824Z,99.99
2019-06-27T08:11:32.796Z,99.99
2019-06-27T08:12:32.768Z,99.99
2019-06-27T08:13:32.694Z,99.99
2019-06-27T08:14:32.649Z,99.99
2019-06-27T08:15:32.650Z,99.99
2019-06-27T08:16:32.565Z,99.99
2019-06-27T08:17:32.521Z,99.99
2019-06-27T08:18:32.478Z,99.99
2019-06-27T08:19:32.436Z,99.99
2019-06-27T08:20:32.427Z,99.99
2019-06-27T08:21:32.350Z,99.99
2019-06-27T08:22:32.344Z,99.99
2019-06-27T08:23:41.671Z,99.99
2019-06-27T08:24:34.534Z,99.99
2019-06-27T08:25:32.181Z,99.99
2019-06-27T08:26:32.169Z,99.99
2019-06-27T08:27:32.092Z,99.99
2019-06-27T08:28:32.077Z,99.99
2019-06-27T08:29:32.008Z,99.99
2019-06-27T08:30:31.966Z,99.26
2019-06-27T08:31:31.924Z,99.11
2019-06-27T08:32:31.879Z,99.69
2019-06-27T08:33:31.870Z,98.83
2019-06-27T08:34:31.794Z,97.86
2019-06-27T08:35:33.614Z,98.44
2019-06-27T08:36:31.710Z,97.47
2019-06-27T08:37:31.670Z,96.26
2019-06-27T08:38:31.648Z,95.68
2019-06-27T08:39:31.583Z,95.20
2019-06-27T08:40:31.541Z,94.81
2019-06-27T08:41:31.506Z,92.88
2019-06-27T08:42:31.489Z,93.94
2019-06-27T08:43:31.416Z,91.86
2019-06-27T08:44:31.406Z,91.38
2019-06-27T08:45:31.330Z,92.39
2019-06-27T08:46:31.286Z,92.87
2019-06-27T08:47:31.284Z,89.43
2019-06-27T08:48:31.219Z,87.59
2019-06-27T08:49:31.192Z,87.59
2019-06-27T08:50:31.161Z,87.82
2019-06-27T08:51:31.079Z,85.79
2019-06-27T08:52:31.060Z,84.72
2019-06-27T08:53:30.994Z,83.22
2019-06-27T08:54:30.957Z,82.92
2019-06-27T08:55:30.913Z,81.90
2019-06-27T08:56:30.907Z,80.93
2019-06-27T08:57:30.832Z,80.38
2019-06-27T08:58:30.792Z,79.02
2019-06-27T08:59:30.741Z,79.32
2019-06-27T09:00:30.703Z,80.13
2019-06-27T09:01:30.698Z,75.18
2019-06-27T09:02:30.621Z,74.21
2019-06-27T09:03:30.616Z,73.91
2019-06-27T09:04:30.547Z,74.82
2019-06-27T09:05:30.530Z,73.66
2019-06-27T09:06:30.459Z,74.82
2019-06-27T09:07:30.431Z,74.15
2019-06-27T09:08:30.414Z,72.78
2019-06-27T09:09:30.350Z,70.97
2019-06-27T09:10:30.295Z,65.53
2019-06-27T09:11:33.530Z,63.68
2019-06-27T09:12:30.241Z,61.18
2019-06-27T09:13:30.172Z,61.67
2019-06-27T09:14:30.133Z,61.87
2019-06-27T09:15:30.091Z,62.38
2019-06-27T09:16:30.052Z,64.32
2019-06-27T09:17:30.053Z,63.45
2019-06-27T09:18:29.974Z,60.27
2019-06-27T09:19:29.932Z,60.75
2019-06-27T09:20:29.894Z,61.83
2019-06-27T09:21:29.854Z,63.87
2019-06-27T09:22:29.849Z,62.32
2019-06-27T09:23:29.771Z,61.93
2019-06-27T09:24:29.730Z,62.32
2019-06-27T09:25:29.696Z,58.32
2019-06-27T09:26:29.652Z,55.69
2019-06-27T09:27:29.650Z,55.11
2019-06-27T09:28:29.575Z,55.69
2019-06-27T09:29:29.535Z,55.50
2019-06-27T09:30:29.526Z,57.93
2019-06-27T09:31:29.453Z,58.84
2019-06-27T09:32:29.415Z,58.32
2019-06-27T09:33:29.376Z,59.49
2019-06-27T09:34:29.379Z,60.78
2019-06-27T09:35:29.299Z,60.59
2019-06-27T09:36:29.256Z,61.37
2019-06-27T09:37:29.219Z,60.59
2019-06-27T09:38:29.178Z,60.78
2019-06-27T09:39:29.171Z,59.91
2019-06-27T09:40:29.098Z,60.13
2019-06-27T09:41:29.105Z,60.13
2019-06-27T09:42:29.026Z,59.45
2019-06-27T09:43:28.982Z,59.35
2019-06-27T09:44:28.943Z,59.84
2019-06-27T09:45:28.904Z,59.94
2019-06-27T09:46:28.899Z,59.55
2019-06-27T09:47:28.827Z,59.74
2019-06-27T09:48:28.788Z,60.03
2019-06-27T09:49:28.751Z,58.50
2019-06-27T09:50:28.744Z,58.58
2019-06-27T09:51:28.714Z,58.31
2019-06-27T09:52:28.633Z,57.73
2019-06-27T09:53:28.595Z,53.53
2019-06-27T09:54:28.560Z,52.17
2019-06-27T09:55:28.542Z,50.70
2019-06-27T09:56:28.480Z,52.75
2019-06-27T09:57:28.442Z,52.68
2019-06-27T09:58:28.404Z,52.58
2019-06-27T09:59:28.369Z,52.29
2019-06-27T10:00:28.356Z,49.88
2019-06-27T10:01:28.290Z,49.78
2019-06-27T10:02:40.870Z,50.75
2019-06-27T10:03:28.242Z,51.43
2019-06-27T10:04:28.188Z,52.31
2019-06-27T10:05:28.168Z,52.41
2019-06-27T10:06:28.098Z,49.19
2019-06-27T10:07:28.061Z,49.78
2019-06-27T10:08:28.022Z,50.26
2019-06-27T10:09:27.983Z,49.19
2019-06-27T10:10:27.997Z,48.80
2019-06-27T10:11:27.906Z,49.49
2019-06-27T10:12:41.225Z,52.31
2019-06-27T10:13:27.831Z,51.07
2019-06-27T10:14:27.801Z,51.37
2019-06-27T10:15:27.797Z,52.34
2019-06-27T10:16:27.726Z,49.92
2019-06-27T10:17:27.681Z,49.92
2019-06-27T10:18:27.658Z,50.02
2019-06-27T10:19:27.605Z,50.68
2019-06-27T10:20:27.601Z,51.27
2019-06-27T10:21:27.567Z,50.68
2019-06-27T10:22:27.508Z,51.46
2019-06-27T10:23:27.458Z,49.14
2019-06-27T10:24:27.417Z,50.39
2019-06-27T10:25:27.389Z,50.98
2019-06-27T10:26:27.390Z,49.61
2019-06-27T10:27:27.361Z,49.51
2019-06-27T10:28:27.267Z,50.22
2019-06-27T10:29:27.237Z,50.61
2019-06-27T10:30:27.228Z,48.94
2019-06-27T10:31:27.155Z,48.65
2019-06-27T10:32:27.151Z,47.38
2019-06-27T10:33:27.085Z,47.67
2019-06-27T10:34:27.045Z,46.80
2019-06-27T10:35:27.021Z,45.92
2019-06-27T10:36:26.971Z,46.01
2019-06-27T10:37:28.033Z,46.70
2019-06-27T10:38:26.898Z,46.21
2019-06-27T10:39:26.894Z,46.60
2019-06-27T10:40:26.881Z,45.82
2019-06-27T10:41:26.790Z,46.82
2019-06-27T10:42:26.792Z,46.62
2019-06-27T10:43:26.852Z,44.48
2019-06-27T10:44:26.708Z,43.52
2019-06-27T10:45:26.640Z,42.05
2019-06-27T10:46:26.608Z,41.36
2019-06-27T10:47:26.567Z,41.97
2019-06-27T10:48:26.528Z,40.88
2019-06-27T10:49:26.601Z,42.05
2019-06-27T10:50:26.457Z,42.76
2019-06-27T10:51:27.017Z,41.19
2019-06-27T10:52:26.384Z,40.41
2019-06-27T10:53:26.360Z,40.70
2019-06-27T10:54:26.501Z,41.00
2019-06-27T10:55:26.288Z,41.49
2019-06-27T10:56:26.250Z,41.19
2019-06-27T10:57:26.230Z,42.27
2019-06-27T10:58:26.202Z,42.76
2019-06-27T10:59:26.127Z,43.15
2019-06-27T11:00:26.091Z,43.84
2019-06-27T11:01:26.053Z,42.27
2019-06-27T11:02:26.038Z,42.68
2019-06-27T11:03:26.048Z,44.34
2019-06-27T11:04:25.942Z,42.38
2019-06-27T11:05:25.957Z,43.24
2019-06-27T11:06:25.869Z,42.76
2019-06-27T11:07:25.838Z,43.24
2019-06-27T11:08:25.800Z,41.78
2019-06-27T11:09:25.762Z,40.82
2019-06-27T11:10:25.757Z,39.35
2019-06-27T11:11:25.722Z,39.64
2019-06-27T11:12:25.679Z,41.02
2019-06-27T11:13:25.619Z,38.67
2019-06-27T11:14:25.628Z,38.49
2019-06-27T11:15:25.559Z,38.20
2019-06-27T11:16:25.535Z,38.88
2019-06-27T11:17:25.470Z,38.68
2019-06-27T11:18:25.435Z,38.00
2019-06-27T11:19:25.438Z,36.94
2019-06-27T11:20:25.381Z,37.82
2019-06-27T11:21:25.329Z,36.84
2019-06-27T11:22:25.298Z,36.14
2019-06-27T11:23:25.269Z,37.90
2019-06-27T11:24:25.253Z,38.00
2019-06-27T11:25:25.208Z,37.61
2019-06-27T11:26:25.179Z,37.12
2019-06-27T11:27:27.435Z,36.63
2019-06-27T11:28:25.095Z,38.00
2019-06-27T11:29:25.059Z,36.92
2019-06-27T11:30:25.011Z,36.82
2019-06-27T11:31:24.967Z,37.92
2019-06-27T11:32:24.967Z,35.86
2019-06-27T11:33:32.521Z,35.57
2019-06-27T11:34:24.858Z,37.04
2019-06-27T11:35:24.847Z,36.06
2019-06-27T11:36:24.792Z,35.66
2019-06-27T11:37:24.793Z,36.25
2019-06-27T11:38:24.729Z,36.37
2019-06-27T11:39:24.701Z,36.18
2019-06-27T11:40:24.687Z,35.58
2019-06-27T11:41:24.607Z,36.08
2019-06-27T11:42:24.572Z,35.58
2019-06-27T11:43:24.536Z,34.70
2019-06-27T11:44:24.500Z,34.92
2019-06-27T11:45:24.510Z,34.72
2019-06-27T11:46:24.430Z,34.61
2019-06-27T11:47:24.399Z,35.88
2019-06-27T11:48:24.375Z,35.80
2019-06-27T11:49:24.325Z,35.31
2019-06-27T11:50:24.325Z,34.92
2019-06-27T11:51:24.251Z,35.60
2019-06-27T11:52:26.362Z,36.08
2019-06-27T11:53:24.179Z,35.19
2019-06-27T11:54:24.145Z,35.70
2019-06-27T11:55:24.151Z,34.72
2019-06-27T11:56:24.073Z,35.41
2019-06-27T11:57:24.041Z,36.09
2019-06-27T11:58:24.006Z,36.88
2019-06-27T11:59:23.969Z,36.66
2019-06-27T12:00:23.965Z,36.27
2019-06-27T12:01:23.930Z,35.29
2019-06-27T12:02:23.858Z,34.41
2019-06-27T12:03:23.865Z,34.90
2019-06-27T12:04:23.787Z,35.00
2019-06-27T12:05:23.755Z,35.58
2019-06-27T12:06:23.718Z,36.68
2019-06-27T12:07:23.691Z,35.60
2019-06-27T12:08:23.681Z,35.21
2019-06-27T12:09:23.652Z,35.58
2019-06-27T12:10:23.576Z,35.78
2019-06-27T12:11:23.545Z,35.78
2019-06-27T12:12:23.504Z,34.81
2019-06-27T12:13:23.477Z,35.29
2019-06-27T12:14:23.472Z,34.92
2019-06-27T12:15:23.429Z,35.89
2019-06-27T12:16:23.363Z,36.18
2019-06-27T12:17:23.359Z,34.80
2019-06-27T12:18:23.305Z,34.41
2019-06-27T12:19:23.287Z,34.80
2019-06-27T12:20:23.219Z,33.92
2019-06-27T12:21:23.187Z,33.82
2019-06-27T12:22:23.155Z,33.02
2019-06-27T12:23:23.142Z,34.69
2019-06-27T12:24:23.080Z,33.72
2019-06-27T12:25:23.044Z,31.86
2019-06-27T12:26:23.014Z,33.62
2019-06-27T12:27:23.004Z,32.15
2019-06-27T12:28:22.981Z,33.04
2019-06-27T12:29:22.908Z,33.15
2019-06-27T12:30:22.867Z,33.05
2019-06-27T12:31:22.833Z,33.04
2019-06-27T12:32:22.797Z,32.74
2019-06-27T12:33:22.803Z,33.33
2019-06-27T12:34:22.729Z,33.53
2019-06-27T12:35:22.695Z,31.96
2019-06-27T12:36:22.657Z,31.96
2019-06-27T12:37:22.623Z,32.63
2019-06-27T12:38:22.619Z,31.96
2019-06-27T12:39:22.582Z,31.37
2019-06-27T12:40:22.515Z,31.07
2019-06-27T12:41:22.510Z,29.91
2019-06-27T12:42:31.866Z,30.11
2019-06-27T12:43:22.445Z,29.62
2019-06-27T12:44:22.376Z,30.50
2019-06-27T12:45:22.348Z,31.37
2019-06-27T12:46:22.314Z,32.27
2019-06-27T12:47:22.273Z,32.07
2019-06-27T12:48:22.275Z,30.60
2019-06-27T12:49:22.200Z,29.70
2019-06-27T12:50:22.171Z,30.01
2019-06-27T12:51:22.131Z,29.62
2019-06-27T12:52:22.100Z,30.01